Time;durP1;ratioP1;P1;durP2;ratioP2;P2;SDS_P1;SDS_P2;PMS_P1;PMS_P2;Temp;Humidity;BMP_temperature;BMP_pressure;BME280_temperature;BME280_humidity;BME280_pressure;Samples;Min_cycle;Max_cycle;Signal;HPM_P1;HPM_P2
2022/05/20 00:02:11;;;;;;;;;1.25;1.25;;;;;23.41;54.45;102264.81;5090216;28;8799;-73
2022/05/20 00:04:36;;;;;;;;;1.50;1.50;;;;;23.41;54.53;102264.81;5089457;28;8792;-73
2022/05/20 00:07:03;;;;;;;;;2.00;2.00;;;;;23.41;54.44;102264.81;5089664;28;8776;-73
2022/05/20 00:09:28;;;;;;;;;1.25;1.25;;;;;23.40;54.21;102266.59;5088298;28;9630;-73
2022/05/20 00:11:54;;;;;;;;;1.00;1.00;;;;;23.39;54.58;102256.84;5068648;28;9813;-73
2022/05/20 00:14:20;;;;;;;;;1.00;1.00;;;;;23.39;54.49;102251.50;5081348;28;8934;-73
2022/05/20 00:16:45;;;;;;;;;1.00;1.00;;;;;23.38;54.51;102252.41;5089673;28;9650;-73
2022/05/20 00:19:10;;;;;;;;;1.00;1.00;;;;;23.39;54.29;102259.50;5089158;28;8790;-73
2022/05/20 00:21:36;;;;;;;;;1.25;1.25;;;;;23.39;54.09;102253.28;5090136;28;8915;-73
2022/05/20 00:24:02;;;;;;;;;2.00;1.50;;;;;23.37;54.04;102250.63;5089782;28;8795;-73
2022/05/20 00:26:27;;;;;;;;;1.00;1.00;;;;;23.37;54.23;102255.06;5089279;28;8775;-73
2022/05/20 00:28:56;;;;;;;;;2.75;2.00;;;;;23.36;54.38;102254.19;5089797;28;10154;-74
2022/05/20 00:31:23;;;;;;;;;1.00;1.00;;;;;23.36;53.94;102243.50;5089718;28;8894;-73
2022/05/20 00:33:49;;;;;;;;;1.75;1.75;;;;;23.36;54.44;102247.97;5088805;28;9467;-73
2022/05/20 00:36:14;;;;;;;;;1.00;1.00;;;;;23.35;54.27;102254.22;5089760;28;9599;-73
2022/05/20 00:38:40;;;;;;;;;2.00;2.00;;;;;23.35;54.33;102247.09;5090104;28;9604;-73
2022/05/20 00:41:07;;;;;;;;;2.00;2.00;;;;;23.35;54.47;102247.09;5088943;28;8930;-73
2022/05/20 00:43:32;;;;;;;;;1.00;1.00;;;;;23.34;54.17;102245.31;5089732;28;8861;-72
2022/05/20 00:46:01;;;;;;;;;1.75;1.75;;;;;23.32;54.14;102244.44;5089201;28;9543;-73
2022/05/20 00:48:28;;;;;;;;;1.00;1.00;;;;;23.33;54.41;102243.53;5089873;28;9006;-73
2022/05/20 00:51:27;;;;;;;;;1.00;1.00;;;;;23.34;53.97;102244.44;5089555;28;9467;-73
2022/05/20 00:53:59;;;;;;;;;2.00;0.50;;;;;23.33;54.10;102240.00;5073990;28;9706;-72
2022/05/20 00:56:30;;;;;;;;;1.00;1.00;;;;;23.32;54.03;102241.78;5089509;28;9465;-72
2022/05/20 00:58:58;;;;;;;;;1.00;1.00;;;;;23.32;54.08;102244.44;5089063;28;9530;-73
2022/05/20 01:01:24;;;;;;;;;1.00;1.00;;;;;23.32;54.08;102243.59;5088681;28;9604;-72
2022/05/20 01:03:52;;;;;;;;;1.00;1.00;;;;;23.30;54.22;102243.56;5092258;28;9367;-73
2022/05/20 01:06:17;;;;;;;;;2.00;1.00;;;;;23.32;54.27;102243.59;5093456;28;9495;-73
2022/05/20 01:08:42;;;;;;;;;1.00;1.00;;;;;23.30;53.96;102243.56;5092717;28;9654;-73
2022/05/20 01:11:08;;;;;;;;;1.00;1.00;;;;;23.29;54.38;102238.25;5077646;28;8794;-73
2022/05/20 01:13:34;;;;;;;;;0.00;0.00;;;;;23.29;54.31;102239.13;5077902;28;8804;-72
2022/05/20 01:16:04;;;;;;;;;1.25;1.25;;;;;23.29;53.94;102236.47;5092517;28;8843;-73
2022/05/20 01:18:35;;;;;;;;;1.00;1.00;;;;;23.29;54.01;102224.94;5093358;28;9562;-73
2022/05/20 01:21:01;;;;;;;;;1.50;1.50;;;;;23.28;54.00;102225.84;5093130;28;9374;-73
2022/05/20 01:23:28;;;;;;;;;1.00;1.00;;;;;23.28;53.91;102223.19;5092658;28;9387;-73
2022/05/20 01:25:55;;;;;;;;;1.00;1.00;;;;;23.27;53.94;102216.06;5093204;28;9572;-72
2022/05/20 01:28:22;;;;;;;;;1.00;1.00;;;;;23.26;54.15;102211.63;5092055;28;9602;-72
2022/05/20 01:30:54;;;;;;;;;1.00;1.00;;;;;23.26;54.20;102201.88;5092638;28;9383;-73
2022/05/20 01:33:24;;;;;;;;;1.00;1.00;;;;;23.25;54.22;102199.19;5093045;28;9654;-72
2022/05/20 01:35:50;;;;;;;;;1.00;1.00;;;;;23.25;53.86;102197.41;5091950;28;9420;-73
2022/05/20 01:38:16;;;;;;;;;1.00;1.00;;;;;23.25;53.89;102194.75;5092742;28;9687;-74
2022/05/20 01:40:47;;;;;;;;;1.50;1.50;;;;;23.26;54.05;102192.97;5092651;28;11426;-73
2022/05/20 01:43:31;;;;;;;;;0.00;0.00;;;;;23.25;54.01;102186.75;5092368;28;8792;-73
2022/05/20 01:46:02;;;;;;;;;1.75;1.00;;;;;23.24;53.90;102181.47;5092648;28;9389;-72
2022/05/20 01:48:35;;;;;;;;;1.75;1.00;;;;;23.23;53.85;102166.38;5092709;28;9518;-72
2022/05/20 01:51:07;;;;;;;;;0.33;0.33;;;;;23.22;53.84;102169.91;5091669;28;9533;-72
2022/05/20 01:53:40;;;;;;;;;2.00;2.00;;;;;23.23;53.86;102177.03;5092668;28;9311;-72
2022/05/20 01:56:11;;;;;;;;;1.75;1.00;;;;;23.24;53.64;102193.00;5092361;28;9570;-72
2022/05/20 01:58:50;;;;;;;;;1.00;1.00;;;;;23.23;54.11;102191.22;5092020;28;9701;-72
2022/05/20 02:01:28;;;;;;;;;1.00;1.00;;;;;23.22;53.75;102189.47;5092695;28;9544;-72
2022/05/20 02:03:59;;;;;;;;;1.00;1.00;;;;;23.21;53.80;102184.16;5091658;28;9777;-72
2022/05/20 02:06:32;;;;;;;;;1.00;1.00;;;;;23.22;53.61;102184.13;5092681;28;9743;-72
2022/05/20 02:09:05;;;;;;;;;1.50;0.00;;;;;23.20;54.11;102177.94;5092120;28;9463;-72
2022/05/20 02:11:33;;;;;;;;;1.00;1.00;;;;;23.21;53.74;102171.69;5072852;28;9502;-72
2022/05/20 02:14:19;;;;;;;;;2.00;2.00;;;;;23.20;53.61;102182.38;5079465;28;9591;-73
2022/05/20 02:16:51;;;;;;;;;1.00;1.00;;;;;23.19;53.92;102184.16;5091835;28;9566;-72
2022/05/20 02:19:31;;;;;;;;;1.00;1.00;;;;;23.18;53.48;102182.38;5091583;28;9465;-72
2022/05/20 02:22:01;;;;;;;;;0.50;0.50;;;;;23.18;53.58;102182.38;5092019;28;9618;-73
2022/05/20 02:24:31;;;;;;;;;1.50;1.00;;;;;23.18;54.07;102181.50;5091499;28;9452;-73
2022/05/20 02:27:02;;;;;;;;;1.25;1.00;;;;;23.17;53.68;102182.41;5091622;28;9501;-73
2022/05/20 02:29:36;;;;;;;;;1.00;1.00;;;;;23.17;54.08;102177.09;5092182;28;9389;-73
2022/05/20 02:32:11;;;;;;;;;1.75;1.00;;;;;23.17;53.66;102174.44;5090830;28;9543;-73
2022/05/20 02:34:37;;;;;;;;;0.75;0.75;;;;;23.17;53.63;102163.78;5091667;28;9603;-72
2022/05/20 02:37:18;;;;;;;;;1.00;1.00;;;;;23.17;53.95;102177.09;5091584;28;9499;-73
2022/05/20 02:39:44;;;;;;;;;1.50;1.00;;;;;23.17;53.88;102179.75;5090988;28;8910;-73
2022/05/20 02:42:09;;;;;;;;;1.75;1.00;;;;;23.15;53.75;102174.44;5091948;28;10429;-73
2022/05/20 02:44:34;;;;;;;;;1.00;1.00;;;;;23.14;53.64;102180.66;5091799;28;8883;-73
2022/05/20 02:46:59;;;;;;;;;1.00;1.00;;;;;23.15;53.67;102170.88;5090737;28;8810;-73
2022/05/20 02:49:24;;;;;;;;;2.00;1.00;;;;;23.15;53.56;102173.53;5091501;28;8776;-73
2022/05/20 02:51:50;;;;;;;;;1.00;1.00;;;;;23.14;53.63;102175.31;5091323;28;8764;-74
2022/05/20 02:54:15;;;;;;;;;1.00;1.00;;;;;23.14;53.58;102167.31;5090811;28;8808;-74
2022/05/20 02:56:40;;;;;;;;;1.00;1.00;;;;;23.13;53.59;102164.69;5091567;28;8876;-73
2022/05/20 03:04:33;;;;;;;;;0.50;0.50;;;;;23.12;53.49;102166.47;5091474;28;9383;-74
2022/05/20 03:06:59;;;;;;;;;1.25;1.25;;;;;23.12;53.38;102166.47;5090344;28;9509;-73
2022/05/20 03:09:26;;;;;;;;;1.00;1.00;;;;;23.13;53.35;102170.91;5090326;28;8918;-73
2022/05/20 03:11:51;;;;;;;;;2.00;2.00;;;;;23.09;53.71;102167.34;5070499;28;8908;-73
2022/05/20 03:14:20;;;;;;;;;1.00;1.00;;;;;23.09;53.67;102171.84;5081062;28;9499;-73
2022/05/20 03:16:46;;;;;;;;;1.00;1.00;;;;;23.08;53.82;102170.94;5090728;28;8787;-74
2022/05/20 03:19:12;;;;;;;;;1.00;1.00;;;;;23.09;53.43;102166.50;5091445;28;9542;-73
2022/05/20 03:21:39;;;;;;;;;0.25;0.25;;;;;23.07;53.39;102168.28;5090528;28;9634;-73
2022/05/20 03:24:06;;;;;;;;;2.00;1.25;;;;;23.08;53.43;102172.72;5090698;28;11398;-73
2022/05/20 03:26:32;;;;;;;;;1.25;1.25;;;;;23.08;53.12;102168.28;5091116;28;9577;-73
2022/05/20 03:29:02;;;;;;;;;1.50;1.50;;;;;23.08;53.35;102170.06;5089852;28;9647;-73
2022/05/20 03:31:27;;;;;;;;;1.00;1.00;;;;;23.07;53.33;102168.28;5091191;28;8810;-73
2022/05/20 03:33:53;;;;;;;;;1.00;1.00;;;;;23.08;53.38;102164.72;5090502;28;10267;-73
2022/05/20 03:36:18;;;;;;;;;2.25;1.50;;;;;23.08;53.55;102159.41;5090068;28;8800;-73
2022/05/20 03:38:43;;;;;;;;;1.00;1.00;;;;;23.07;53.31;102168.28;5090070;28;9456;-72
2022/05/20 03:41:10;;;;;;;;;1.00;1.00;;;;;23.06;53.29;102163.84;5090546;28;8787;-72
2022/05/20 03:43:36;;;;;;;;;1.00;0.00;;;;;23.06;53.53;102162.06;5089749;28;9456;-71
2022/05/20 03:46:01;;;;;;;;;1.25;1.25;;;;;23.06;53.59;102155.84;5090248;28;9610;-71
2022/05/20 03:48:27;;;;;;;;;1.00;1.00;;;;;23.06;53.24;102158.50;5090550;28;11430;-72
2022/05/20 03:50:53;;;;;;;;;2.00;2.00;;;;;23.06;53.31;102153.19;5089208;28;8803;-72
2022/05/20 03:53:19;;;;;;;;;1.00;1.00;;;;;23.04;53.15;102145.22;5090218;28;11007;-72
2022/05/20 03:55:44;;;;;;;;;2.25;1.75;;;;;23.05;53.44;102143.44;5090274;28;8826;-72
2022/05/20 03:58:10;;;;;;;;;1.00;1.00;;;;;23.05;53.36;102147.00;5089335;28;9501;-72
2022/05/20 04:03:19;;;;;;;;;1.00;1.00;;;;;23.05;53.45;102148.78;5089442;28;8756;-72
2022/05/20 04:05:45;;;;;;;;;1.00;1.00;;;;;23.04;53.44;102147.00;5090011;28;10159;-71
2022/05/20 04:08:10;;;;;;;;;1.50;1.50;;;;;23.03;53.15;102138.13;5090094;28;8877;-72
2022/05/20 04:10:36;;;;;;;;;2.00;2.00;;;;;23.03;52.98;102134.56;5078003;28;8814;-71
2022/05/20 04:13:02;;;;;;;;;0.75;0.75;;;;;23.02;53.41;102124.84;5070034;28;8837;-71
2022/05/20 04:15:27;;;;;;;;;1.00;1.00;;;;;23.02;53.53;102122.16;5089779;28;9716;-72
2022/05/20 04:17:52;;;;;;;;;2.25;1.00;;;;;23.02;53.21;102122.16;5089100;28;8898;-72
2022/05/20 04:20:18;;;;;;;;;2.25;2.25;;;;;23.03;53.44;102121.25;5089829;28;8776;-72
2022/05/20 04:22:44;;;;;;;;;2.00;2.00;;;;;23.02;53.10;102115.03;5089933;28;8752;-73
2022/05/20 04:25:11;;;;;;;;;0.00;0.00;;;;;23.02;53.15;102114.19;5089279;28;8780;-72
2022/05/20 04:27:37;;;;;;;;;1.00;1.00;;;;;23.01;53.28;102115.06;5090018;28;9466;-72
2022/05/20 04:30:03;;;;;;;;;0.75;0.75;;;;;23.01;53.43;102120.41;5089705;28;10064;-73
2022/05/20 04:32:28;;;;;;;;;0.75;0.75;;;;;23.00;53.28;102124.84;5088941;28;8775;-72
2022/05/20 04:34:53;;;;;;;;;1.75;1.75;;;;;23.01;53.08;102139.94;5089261;28;9645;-72
2022/05/20 04:37:19;;;;;;;;;1.75;1.75;;;;;23.02;53.27;102139.00;5089263;28;8768;-72
2022/05/20 04:39:44;;;;;;;;;1.00;1.00;;;;;23.01;53.30;102131.06;5088427;28;8784;-72
2022/05/20 04:47:40;;;;;;;;;1.75;1.50;;;;;23.01;53.30;102139.03;5089797;28;9442;-72
2022/05/20 04:50:07;;;;;;;;;1.00;1.00;;;;;23.00;53.27;102135.50;5089331;28;9451;-73
2022/05/20 04:52:32;;;;;;;;;1.00;1.00;;;;;22.99;53.48;102133.72;5088583;28;8807;-74
2022/05/20 04:54:58;;;;;;;;;3.50;3.00;;;;;22.99;53.34;102139.03;5089368;28;9646;-74
2022/05/20 04:57:34;;;;;;;;;3.00;1.50;;;;;23.00;53.15;102142.59;5089654;28;8776;-73
2022/05/20 05:00:20;;;;;;;;;1.25;1.25;;;;;23.01;53.19;102142.59;5088845;28;8771;-73
2022/05/20 05:02:46;;;;;;;;;1.00;1.00;;;;;23.04;52.93;102141.66;5089007;28;9482;-72
2022/05/20 05:05:15;;;;;;;;;1.00;1.00;;;;;23.06;52.80;102143.41;5089633;28;9670;-72
2022/05/20 05:07:43;;;;;;;;;1.00;1.00;;;;;23.08;52.80;102140.75;5088414;28;9454;-72
2022/05/20 05:10:11;;;;;;;;;2.00;2.00;;;;;23.09;53.02;102140.72;5082185;28;9492;-72
2022/05/20 05:12:37;;;;;;;;;1.00;1.00;;;;;23.09;53.05;102140.72;5069229;28;9635;-72
2022/05/20 05:15:03;;;;;;;;;1.00;1.00;;;;;23.13;53.05;102158.44;5085701;28;9824;-72
2022/05/20 05:20:22;;;;;;;;;1.00;1.00;;;;;23.15;52.60;102160.22;5089406;28;9421;-72
2022/05/20 05:22:55;;;;;;;;;1.50;1.50;;;;;23.15;52.54;102162.88;5089293;28;9484;-72
2022/05/20 05:25:24;;;;;;;;;1.75;1.75;;;;;23.14;52.86;102159.31;5089274;28;9584;-72
2022/05/20 05:27:50;;;;;;;;;1.00;1.00;;;;;23.15;52.69;102169.09;5088304;28;9575;-72
2022/05/20 05:30:16;;;;;;;;;1.75;1.75;;;;;23.15;52.67;102161.09;5089332;28;9456;-73
2022/05/20 05:32:42;;;;;;;;;1.00;1.00;;;;;23.14;52.92;102154.00;5089325;28;9634;-72
2022/05/20 05:35:10;;;;;;;;;1.00;1.00;;;;;23.15;52.75;102158.44;5088400;28;9433;-73
2022/05/20 05:37:37;;;;;;;;;2.00;2.00;;;;;23.16;52.39;102154.00;5088913;28;8810;-72
2022/05/20 05:40:04;;;;;;;;;1.00;1.00;;;;;23.15;52.63;102154.88;5088695;28;9567;-73
2022/05/20 05:42:30;;;;;;;;;1.00;1.00;;;;;23.15;52.62;102150.44;5088254;28;9470;-73
2022/05/20 05:44:56;;;;;;;;;0.67;0.67;;;;;23.15;52.53;102145.13;5088878;28;9423;-73
2022/05/20 05:47:22;;;;;;;;;1.25;1.25;;;;;23.16;52.43;102143.34;5089463;28;8764;-73
2022/05/20 05:49:47;;;;;;;;;1.00;1.00;;;;;23.15;52.81;102142.44;5089235;28;9534;-73
2022/05/20 05:52:12;;;;;;;;;2.00;2.00;;;;;23.16;52.45;102135.34;5092767;28;9476;-72
2022/05/20 05:54:38;;;;;;;;;2.00;2.00;;;;;23.15;52.47;102134.47;5092560;28;9646;-72
2022/05/20 05:57:03;;;;;;;;;2.25;2.25;;;;;23.18;52.70;102138.88;5091620;28;8886;-73
2022/05/20 05:59:31;;;;;;;;;1.00;1.00;;;;;23.18;52.39;102138.88;5092601;28;8926;-73
2022/05/20 06:02:00;;;;;;;;;1.00;1.00;;;;;23.17;52.72;102145.97;5092500;28;9588;-73
2022/05/20 06:04:26;;;;;;;;;1.00;1.00;;;;;23.15;52.76;102145.13;5091962;28;9416;-72
2022/05/20 06:06:52;;;;;;;;;1.00;1.00;;;;;23.16;52.44;102146.91;5092120;28;9457;-72
2022/05/20 06:09:17;;;;;;;;;1.50;1.50;;;;;23.19;52.60;102145.97;5091956;28;10249;-72
2022/05/20 06:11:43;;;;;;;;;1.00;1.00;;;;;23.19;52.64;102143.31;5071597;28;8822;-72
2022/05/20 06:14:08;;;;;;;;;1.50;1.50;;;;;23.19;52.28;102135.31;5081909;28;9576;-72
2022/05/20 06:16:34;;;;;;;;;1.50;1.50;;;;;23.17;52.70;102129.97;5092236;28;8771;-73
2022/05/20 06:18:59;;;;;;;;;1.00;1.00;;;;;23.18;52.74;102125.53;5092326;28;8772;-73
2022/05/20 06:21:26;;;;;;;;;2.00;2.00;;;;;23.18;52.57;102120.22;5092321;28;8970;-73
2022/05/20 06:23:52;;;;;;;;;1.25;1.25;;;;;23.18;52.66;102125.53;5091181;28;8806;-73
2022/05/20 06:26:17;;;;;;;;;1.00;1.00;;;;;23.17;52.41;102121.13;5091869;28;9531;-74
2022/05/20 06:28:42;;;;;;;;;2.00;2.00;;;;;23.20;52.38;102123.75;5092029;28;8783;-73
2022/05/20 06:31:08;;;;;;;;;1.00;1.00;;;;;23.20;52.27;102126.44;5091178;28;8760;-74
2022/05/20 06:33:33;;;;;;;;;1.25;1.25;;;;;23.19;52.39;102125.53;5091914;28;8803;-73
2022/05/20 06:41:26;;;;;;;;;2.00;2.00;;;;;23.20;52.24;102123.75;5091882;28;9429;-74
2022/05/20 06:43:51;;;;;;;;;2.75;1.75;;;;;23.21;52.11;102123.72;5091773;28;9621;-74
2022/05/20 06:46:16;;;;;;;;;3.00;2.00;;;;;23.20;52.53;102122.00;5091278;28;8760;-74
2022/05/20 06:48:50;;;;;;;;;1.00;1.00;;;;;23.22;52.47;102120.19;5092386;28;8804;-74
2022/05/20 06:51:19;;;;;;;;;4.00;2.75;;;;;23.21;52.74;102125.53;5092931;28;8763;-74
2022/05/20 06:53:45;;;;;;;;;2.00;2.00;;;;;23.20;52.70;102116.66;5091868;28;9467;-73
2022/05/20 06:56:12;;;;;;;;;2.00;2.00;;;;;23.20;52.29;102115.78;5092844;28;9570;-74
2022/05/20 06:58:38;;;;;;;;;2.00;2.00;;;;;23.22;52.56;102124.63;5092689;28;8848;-74
2022/05/20 07:01:05;;;;;;;;;2.00;2.00;;;;;23.21;52.61;102113.06;5091434;28;9466;-74
2022/05/20 07:03:30;;;;;;;;;2.00;1.25;;;;;23.25;52.30;102113.91;5092694;28;9545;-75
2022/05/20 07:05:56;;;;;;;;;0.00;0.00;;;;;23.24;52.39;102110.41;5091618;28;9544;-74
2022/05/20 07:08:22;;;;;;;;;2.00;2.00;;;;;23.25;52.40;102105.94;5092785;28;8811;-74
2022/05/20 07:10:47;;;;;;;;;3.00;3.00;;;;;23.26;52.52;102107.69;5079575;28;8801;-74
2022/05/20 07:13:13;;;;;;;;;1.75;1.75;;;;;23.26;52.09;102108.59;5073489;28;8809;-74
2022/05/20 07:15:38;;;;;;;;;2.75;2.75;;;;;23.27;52.16;102107.69;5092459;28;8791;-74
2022/05/20 07:18:03;;;;;;;;;2.00;2.00;;;;;23.28;52.38;102111.25;5092037;28;9570;-74
2022/05/20 07:20:32;;;;;;;;;2.00;2.00;;;;;23.28;52.58;102097.94;5091687;28;8776;-74
2022/05/20 07:22:57;;;;;;;;;1.25;1.25;;;;;23.29;52.44;102094.34;5091959;28;8941;-74
2022/05/20 07:25:22;;;;;;;;;3.00;3.00;;;;;23.29;52.13;102089.00;5091917;28;9654;-74
2022/05/20 07:27:48;;;;;;;;;2.00;2.00;;;;;23.29;52.04;102086.34;5091262;28;8775;-71
2022/05/20 07:30:15;;;;;;;;;3.00;3.00;;;;;23.30;52.08;102085.44;5083012;28;8789;-71
2022/05/20 07:32:40;;;;;;;;;2.00;2.00;;;;;23.31;52.11;102093.44;5070590;28;8802;-71
2022/05/20 07:35:06;;;;;;;;;2.25;1.75;;;;;23.31;52.24;102084.56;5070697;28;9548;-71
2022/05/20 07:37:32;;;;;;;;;2.00;2.00;;;;;23.31;52.46;102072.13;5071981;28;8759;-71
2022/05/20 07:39:58;;;;;;;;;1.00;1.00;;;;;23.32;52.43;102084.53;5071218;28;9533;-71
2022/05/20 07:42:23;;;;;;;;;2.00;2.00;;;;;23.34;52.30;102065.84;5068107;28;9615;-71
2022/05/20 07:44:49;;;;;;;;;4.00;3.25;;;;;23.35;52.40;102059.63;5070079;28;8777;-71
2022/05/20 07:47:15;;;;;;;;;1.50;1.50;;;;;23.34;52.64;102047.22;5070555;28;8888;-71
2022/05/20 07:49:40;;;;;;;;;2.00;2.00;;;;;23.35;52.13;102038.31;5069417;28;8889;-71
2022/05/20 07:52:10;;;;;;;;;3.00;3.00;;;;;23.34;52.42;102023.22;5068420;28;8818;-71
2022/05/20 07:54:39;;;;;;;;;3.25;3.00;;;;;23.35;52.13;102028.53;5070416;28;8806;-71
2022/05/20 07:57:12;;;;;;;;;2.50;2.50;;;;;23.36;52.51;102019.63;5069426;28;9795;-71
2022/05/20 07:59:44;;;;;;;;;3.75;3.00;;;;;23.36;52.36;102027.63;5069826;28;9524;-71
2022/05/20 08:02:09;;;;;;;;;2.00;2.00;;;;;23.37;52.14;102018.72;5068001;28;9630;-72
2022/05/20 08:04:53;;;;;;;;;4.00;4.00;;;;;23.35;52.49;102017.88;5069972;28;9555;-71
2022/05/20 08:07:24;;;;;;;;;2.50;2.50;;;;;23.39;55.17;102027.59;5069950;28;8781;-70
2022/05/20 08:09:49;;;;;;;;;3.00;3.00;;;;;23.47;55.17;102022.22;5073634;28;9627;-70
2022/05/20 08:12:14;;;;;;;;;4.75;3.75;;;;;23.56;56.66;102009.63;5089122;28;9671;-69
2022/05/20 08:14:39;;;;;;;;;5.00;4.00;;;;;23.63;57.25;101994.41;5075907;28;8936;-69
2022/05/20 08:17:06;;;;;;;;;4.00;3.00;;;;;23.71;57.80;101997.88;5069118;28;8770;-70
2022/05/20 08:19:31;;;;;;;;;4.75;4.00;;;;;23.83;62.15;102002.16;5070214;28;8778;-70
2022/05/20 08:21:57;;;;;;;;;5.00;4.00;;;;;23.90;60.22;102003.81;5069636;28;9636;-70
2022/05/20 08:24:23;;;;;;;;;5.25;3.25;;;;;23.97;63.40;102008.16;5069285;28;11434;-69
2022/05/20 08:26:49;;;;;;;;;6.00;5.00;;;;;24.03;65.25;102000.94;5069641;28;8816;-69
2022/05/20 08:29:14;;;;;;;;;7.75;7.00;;;;;24.12;67.26;101999.03;5069746;28;8790;-70
2022/05/20 08:31:41;;;;;;;;;5.25;4.50;;;;;24.17;68.47;102000.75;5069291;28;8808;-70
2022/05/20 08:34:07;;;;;;;;;7.00;4.50;;;;;24.13;65.21;101996.34;5069633;28;8938;-70
2022/05/20 08:36:32;;;;;;;;;4.00;4.00;;;;;24.16;66.06;101984.75;5069511;28;9629;-70
2022/05/20 08:38:58;;;;;;;;;8.75;5.50;;;;;24.13;65.89;101974.09;5068676;28;8762;-72
2022/05/20 08:41:53;;;;;;;;;6.75;6.00;;;;;24.09;68.88;101965.28;5069686;28;8801;-71
2022/05/20 08:44:20;;;;;;;;;7.00;6.00;;;;;24.16;69.42;101950.06;5069249;28;8786;-71
2022/05/20 08:46:47;;;;;;;;;2.50;2.00;;;;;24.14;70.03;101947.44;5069365;28;9777;-77
2022/05/20 08:49:17;;;;;;;;;8.50;6.50;;;;;24.16;69.20;101944.72;5069660;28;9526;-70
2022/05/20 08:51:48;;;;;;;;;4.00;4.00;;;;;24.10;69.33;101936.81;5068939;28;9748;-70
2022/05/20 08:54:13;;;;;;;;;6.25;4.75;;;;;24.03;68.10;101915.53;5069822;28;9859;-70
2022/05/20 08:56:39;;;;;;;;;4.25;4.25;;;;;23.96;66.75;101919.22;5069300;28;9686;-71
2022/05/20 08:59:09;;;;;;;;;6.25;6.00;;;;;24.08;64.64;101908.34;5068591;28;8790;-71
2022/05/20 09:02:02;;;;;;;;;6.50;6.50;;;;;24.13;63.92;101891.38;5069425;28;8851;-71
2022/05/20 09:04:27;;;;;;;;;5.25;5.00;;;;;24.11;63.40;101887.88;5066225;28;9898;-71
2022/05/20 09:07:03;;;;;;;;;4.50;3.75;;;;;24.08;61.86;101891.47;5068621;28;9740;-71
2022/05/20 09:09:52;;;;;;;;;4.00;4.00;;;;;24.06;60.35;101895.97;5071069;28;8766;-71
2022/05/20 09:12:34;;;;;;;;;7.25;6.00;;;;;24.06;62.00;101903.97;5089238;28;9609;-71
2022/05/20 09:18:28;;;;;;;;;4.75;4.00;;;;;24.10;61.14;101900.34;5068799;28;10329;-71
2022/05/20 09:20:54;;;;;;;;;6.50;4.75;;;;;24.14;61.09;101909.19;5068150;28;9824;-71
2022/05/20 09:23:21;;;;;;;;;4.50;2.50;;;;;24.17;60.69;101912.69;5068894;28;9698;-72
2022/05/20 09:26:01;;;;;;;;;6.75;4.50;;;;;24.16;60.09;101907.38;5072843;28;9726;-71
2022/05/20 09:28:47;;;;;;;;;5.25;5.00;;;;;24.15;59.35;101895.81;5072300;28;9800;-71
2022/05/20 09:31:30;;;;;;;;;5.00;5.00;;;;;24.15;59.65;101886.91;5072703;28;9729;-71
2022/05/20 09:34:05;;;;;;;;;4.00;4.00;;;;;24.16;59.41;101888.69;5071462;28;9688;-72
2022/05/20 09:36:37;;;;;;;;;7.00;4.75;;;;;24.14;58.62;101877.19;5072930;28;9710;-72
2022/05/20 09:39:17;;;;;;;;;3.25;3.00;;;;;24.13;58.90;101867.38;5072116;28;9723;-71
2022/05/20 09:41:53;;;;;;;;;6.25;6.25;;;;;24.12;58.70;101849.59;5071919;28;10481;-71
2022/05/20 09:44:22;;;;;;;;;4.00;4.00;;;;;24.10;58.33;101857.63;5072920;28;9583;-72
2022/05/20 09:47:00;;;;;;;;;2.00;2.00;;;;;24.10;58.32;101849.63;5072225;28;9928;-71
2022/05/20 09:49:40;;;;;;;;;5.00;3.00;;;;;24.09;58.08;101845.19;5071825;28;9637;-71
2022/05/20 09:52:20;;;;;;;;;7.00;6.00;;;;;24.08;58.02;101833.63;5072178;28;9743;-71
2022/05/20 09:54:54;;;;;;;;;5.25;4.00;;;;;24.08;57.74;101820.31;5071382;28;9809;-71
2022/05/20 09:57:30;;;;;;;;;3.00;3.00;;;;;24.08;56.98;101814.09;5072311;28;9712;-71
2022/05/20 10:00:26;;;;;;;;;3.00;3.00;;;;;;;;5072250;28;9651;-71
2022/05/20 10:03:05;;;;;;;;;3.00;3.00;;;;;24.06;57.25;101784.78;5058516;28;9816;-72
2022/05/20 10:05:48;;;;;;;;;4.25;4.00;;;;;24.06;57.27;101778.56;5072466;28;9848;-71
2022/05/20 10:08:27;;;;;;;;;5.25;4.75;;;;;24.04;56.75;101772.34;5072244;28;9626;-70
2022/05/20 10:10:57;;;;;;;;;3.75;3.00;;;;;24.04;55.64;101751.00;5084276;28;9749;-71
2022/05/20 10:13:31;;;;;;;;;4.00;4.00;;;;;24.04;56.61;101751.00;5088449;28;10366;-71
2022/05/20 10:16:13;;;;;;;;;3.00;3.00;;;;;24.06;55.50;101755.44;5071060;28;9715;-71
2022/05/20 10:19:00;;;;;;;;;3.00;2.75;;;;;24.05;55.12;101748.31;5072158;28;9630;-72
2022/05/20 10:21:34;;;;;;;;;3.75;3.50;;;;;24.06;54.92;101743.88;5071887;28;9540;-70
2022/05/20 10:24:27;;;;;;;;;4.00;3.00;;;;;24.01;54.03;101737.72;5070950;28;9647;-71
2022/05/20 10:27:02;;;;;;;;;3.50;3.00;;;;;24.01;53.20;101719.06;5071624;28;9629;-70
2022/05/20 10:32:36;;;;;;;;;4.00;4.00;;;;;23.99;52.50;101708.41;5071768;28;10314;-71
2022/05/20 10:35:16;;;;;;;;;3.00;3.00;;;;;23.98;52.66;101682.66;5071195;28;9715;-71
2022/05/20 10:37:57;;;;;;;;;3.00;3.00;;;;;23.98;51.42;101653.31;5071034;28;9602;-71
2022/05/20 10:40:46;;;;;;;;;2.25;2.25;;;;;23.99;50.89;101631.03;5071631;28;9922;-71
2022/05/20 10:43:24;;;;;;;;;6.75;6.00;;;;;24.00;50.35;101631.94;5071628;28;9617;-71
2022/05/20 10:49:10;;;;;;;;;5.00;5.00;;;;;23.98;50.36;101631.97;5071800;28;9656;-71
2022/05/20 10:51:49;;;;;;;;;6.50;6.50;;;;;23.98;50.04;101625.75;5070368;28;9870;-71
2022/05/20 10:54:35;;;;;;;;;7.75;6.75;;;;;23.97;50.24;101626.66;5071747;28;9838;-71
2022/05/20 10:57:12;;;;;;;;;7.50;7.50;;;;;23.95;49.33;101620.50;5071606;28;9864;-71
2022/05/20 11:00:03;;;;;;;;;7.25;6.25;;;;;23.94;49.33;101611.59;5070381;28;9969;-70
2022/05/20 11:02:46;;;;;;;;;7.50;6.00;;;;;23.91;49.17;101600.13;5051657;28;9862;-71
2022/05/20 11:05:44;;;;;;;;;5.00;5.00;;;;;23.90;48.75;101587.69;5065741;28;9826;-70
2022/05/20 11:08:30;;;;;;;;;8.25;6.00;;;;;23.96;48.84;101576.88;5071094;28;9709;-71
2022/05/20 11:11:17;;;;;;;;;4.50;4.50;;;;;23.98;47.93;101567.06;5067822;28;9637;-71
2022/05/20 11:14:14;;;;;;;;;4.25;4.25;;;;;24.03;48.44;101559.84;5073249;28;9671;-71
2022/05/20 11:17:02;;;;;;;;;6.25;4.75;;;;;24.10;49.36;101556.13;5070583;28;10467;-78
2022/05/20 11:19:55;;;;;;;;;3.50;3.50;;;;;23.96;48.55;101543.09;5070712;28;9693;-72
2022/05/20 11:22:42;;;;;;;;;3.00;3.00;;;;;23.89;48.21;101532.59;5071421;28;9596;-72
2022/05/20 11:25:18;;;;;;;;;3.50;3.25;;;;;23.87;48.42;101527.31;5070823;28;9470;-73
2022/05/20 11:28:00;;;;;;;;;4.00;4.00;;;;;23.87;48.09;101526.41;5070623;28;9563;-72
2022/05/20 11:30:45;;;;;;;;;3.75;3.75;;;;;23.82;46.68;101533.63;5069903;28;9747;-72
2022/05/20 11:33:48;;;;;;;;;3.25;3.25;;;;;23.77;48.17;101528.41;5070528;28;9618;-72
2022/05/20 11:36:22;;;;;;;;;0.00;0.00;;;;;23.75;49.18;101527.56;5069900;28;10389;-72
2022/05/20 11:39:06;;;;;;;;;2.75;2.75;;;;;23.80;49.05;101533.69;5070316;28;9467;-73
2022/05/20 11:41:56;;;;;;;;;3.00;3.00;;;;;23.82;49.87;101530.97;5068464;28;9635;-72
2022/05/20 11:44:32;;;;;;;;;2.00;2.00;;;;;23.81;49.54;101514.09;5070729;28;9470;-72
2022/05/20 11:47:26;;;;;;;;;2.25;2.25;;;;;23.82;49.54;101523.84;5070664;28;9482;-71
2022/05/20 11:49:59;;;;;;;;;4.00;3.00;;;;;23.82;50.35;101523.84;5069103;28;9712;-72
2022/05/20 11:52:32;;;;;;;;;2.50;2.25;;;;;23.81;50.42;101508.75;5070938;28;9534;-71
2022/05/20 11:55:19;;;;;;;;;2.50;2.50;;;;;23.80;52.37;101480.34;5069462;28;9569;-71
2022/05/20 11:57:54;;;;;;;;;4.25;3.00;;;;;23.78;51.60;101434.16;5070298;28;10431;-73
2022/05/20 12:00:22;;;;;;;;;4.00;4.00;;;;;23.77;52.07;101434.22;5069216;28;9566;-72
2022/05/20 12:03:04;;;;;;;;;3.00;3.00;;;;;23.78;52.93;101462.59;5069870;28;9601;-71
2022/05/20 12:05:35;;;;;;;;;2.50;2.50;;;;;23.77;53.32;101469.72;5070093;28;9487;-72
2022/05/20 12:08:00;;;;;;;;;4.00;4.00;;;;;23.77;53.36;101479.53;5070313;28;9546;-72
2022/05/20 12:10:32;;;;;;;;;3.25;2.00;;;;;23.74;52.36;101464.47;5078254;28;9628;-72
2022/05/20 12:13:09;;;;;;;;;2.00;1.25;;;;;23.71;50.77;101477.00;5089708;28;8812;-70
2022/05/20 12:15:41;;;;;;;;;2.00;2.00;;;;;23.69;49.53;101516.16;5070126;28;9587;-71
2022/05/20 12:18:21;;;;;;;;;3.75;3.75;;;;;23.69;50.02;101573.03;5070100;28;9600;-72
2022/05/20 12:27:03;;;;;;;;;4.75;4.00;;;;;23.61;51.79;101582.09;5046916;28;9653;-72
2022/05/20 12:29:35;;;;;;;;;4.00;4.00;;;;;23.58;53.11;101543.91;5007769;28;9791;-73